sensor_id;sensor_type;location;lat;lon;timestamp;P1;durP1;ratioP1;P2;durP2;ratioP2
85831;SDS011;76278;51.296;16.924;2024-02-23T00:01:06;7.85;;;3.40;;
85831;SDS011;76278;51.296;16.924;2024-02-23T00:03:31;7.88;;;3.50;;
85831;SDS011;76278;51.296;16.924;2024-02-23T00:05:58;8.15;;;4.47;;
85831;SDS011;76278;51.296;16.924;2024-02-23T00:08:24;7.30;;;3.83;;
85831;SDS011;76278;51.296;16.924;2024-02-23T00:10:49;7.68;;;4.00;;
85831;SDS011;76278;51.296;16.924;2024-02-23T00:13:15;8.18;;;3.72;;
85831;SDS011;76278;51.296;16.924;2024-02-23T00:15:40;7.78;;;3.88;;
85831;SDS011;76278;51.296;16.924;2024-02-23T00:18:06;7.63;;;4.00;;
85831;SDS011;76278;51.296;16.924;2024-02-23T00:20:31;7.80;;;3.47;;
85831;SDS011;76278;51.296;16.924;2024-02-23T00:22:57;6.95;;;3.42;;
85831;SDS011;76278;51.296;16.924;2024-02-23T00:25:22;7.70;;;3.88;;
85831;SDS011;76278;51.296;16.924;2024-02-23T00:27:48;6.95;;;3.67;;
85831;SDS011;76278;51.296;16.924;2024-02-23T00:30:13;7.50;;;3.70;;
85831;SDS011;76278;51.296;16.924;2024-02-23T00:32:39;6.88;;;3.50;;
85831;SDS011;76278;51.296;16.924;2024-02-23T00:35:04;8.50;;;3.20;;
85831;SDS011;76278;51.296;16.924;2024-02-23T00:37:30;7.72;;;3.70;;
85831;SDS011;76278;51.296;16.924;2024-02-23T00:40:01;7.53;;;3.75;;
85831;SDS011;76278;51.296;16.924;2024-02-23T00:42:29;7.50;;;4.00;;
85831;SDS011;76278;51.296;16.924;2024-02-23T00:44:55;7.15;;;4.07;;
85831;SDS011;76278;51.296;16.924;2024-02-23T00:47:20;7.13;;;4.07;;
85831;SDS011;76278;51.296;16.924;2024-02-23T00:49:45;7.95;;;4.10;;
85831;SDS011;76278;51.296;16.924;2024-02-23T00:52:11;8.10;;;3.80;;
85831;SDS011;76278;51.296;16.924;2024-02-23T00:54:36;7.80;;;3.47;;
85831;SDS011;76278;51.296;16.924;2024-02-23T00:57:02;7.47;;;3.40;;
85831;SDS011;76278;51.296;16.924;2024-02-23T00:59:27;6.45;;;3.13;;
85831;SDS011;76278;51.296;16.924;2024-02-23T01:01:54;6.03;;;2.45;;
85831;SDS011;76278;51.296;16.924;2024-02-23T01:04:20;5.50;;;2.50;;
85831;SDS011;76278;51.296;16.924;2024-02-23T01:06:45;5.53;;;2.28;;
85831;SDS011;76278;51.296;16.924;2024-02-23T01:09:11;6.43;;;2.03;;
85831;SDS011;76278;51.296;16.924;2024-02-23T01:11:36;6.05;;;3.00;;
85831;SDS011;76278;51.296;16.924;2024-02-23T01:14:01;7.07;;;3.10;;
85831;SDS011;76278;51.296;16.924;2024-02-23T01:16:27;5.72;;;2.30;;
85831;SDS011;76278;51.296;16.924;2024-02-23T01:18:52;4.90;;;1.77;;
85831;SDS011;76278;51.296;16.924;2024-02-23T01:21:18;5.15;;;1.60;;
85831;SDS011;76278;51.296;16.924;2024-02-23T01:23:43;4.90;;;2.10;;
85831;SDS011;76278;51.296;16.924;2024-02-23T01:26:09;4.40;;;1.55;;
85831;SDS011;76278;51.296;16.924;2024-02-23T01:28:34;5.38;;;1.45;;
85831;SDS011;76278;51.296;16.924;2024-02-23T01:31:00;5.10;;;1.60;;
85831;SDS011;76278;51.296;16.924;2024-02-23T01:33:25;4.70;;;1.60;;
85831;SDS011;76278;51.296;16.924;2024-02-23T01:35:51;4.60;;;1.67;;
85831;SDS011;76278;51.296;16.924;2024-02-23T01:38:16;4.68;;;1.40;;
85831;SDS011;76278;51.296;16.924;2024-02-23T01:40:45;4.93;;;1.60;;
85831;SDS011;76278;51.296;16.924;2024-02-23T01:43:11;4.75;;;1.50;;
85831;SDS011;76278;51.296;16.924;2024-02-23T01:45:36;4.60;;;1.70;;
85831;SDS011;76278;51.296;16.924;2024-02-23T01:48:02;4.75;;;1.95;;
85831;SDS011;76278;51.296;16.924;2024-02-23T01:50:28;4.78;;;1.70;;
85831;SDS011;76278;51.296;16.924;2024-02-23T01:52:56;3.97;;;1.38;;
85831;SDS011;76278;51.296;16.924;2024-02-23T01:55:22;4.65;;;1.45;;
85831;SDS011;76278;51.296;16.924;2024-02-23T01:57:48;3.90;;;1.30;;
85831;SDS011;76278;51.296;16.924;2024-02-23T02:00:17;4.38;;;1.30;;
85831;SDS011;76278;51.296;16.924;2024-02-23T02:02:44;3.92;;;1.20;;
85831;SDS011;76278;51.296;16.924;2024-02-23T02:05:10;3.85;;;1.27;;
85831;SDS011;76278;51.296;16.924;2024-02-23T02:07:36;4.50;;;1.33;;
85831;SDS011;76278;51.296;16.924;2024-02-23T02:10:02;4.55;;;1.40;;
85831;SDS011;76278;51.296;16.924;2024-02-23T02:12:28;4.18;;;1.33;;
85831;SDS011;76278;51.296;16.924;2024-02-23T02:14:54;4.32;;;1.40;;
85831;SDS011;76278;51.296;16.924;2024-02-23T02:17:20;4.15;;;1.23;;
85831;SDS011;76278;51.296;16.924;2024-02-23T02:19:47;5.38;;;1.75;;
85831;SDS011;76278;51.296;16.924;2024-02-23T02:22:13;4.22;;;1.50;;
85831;SDS011;76278;51.296;16.924;2024-02-23T02:24:38;3.80;;;1.20;;
85831;SDS011;76278;51.296;16.924;2024-02-23T02:27:07;4.22;;;1.60;;
85831;SDS011;76278;51.296;16.924;2024-02-23T02:29:33;4.68;;;1.73;;
85831;SDS011;76278;51.296;16.924;2024-02-23T02:31:58;3.83;;;1.38;;
85831;SDS011;76278;51.296;16.924;2024-02-23T02:34:23;4.13;;;1.35;;
85831;SDS011;76278;51.296;16.924;2024-02-23T02:36:49;4.25;;;1.70;;
85831;SDS011;76278;51.296;16.924;2024-02-23T02:39:16;4.65;;;1.65;;
85831;SDS011;76278;51.296;16.924;2024-02-23T02:41:41;4.53;;;1.73;;
85831;SDS011;76278;51.296;16.924;2024-02-23T02:44:07;5.30;;;2.00;;
85831;SDS011;76278;51.296;16.924;2024-02-23T02:46:34;4.93;;;1.77;;
85831;SDS011;76278;51.296;16.924;2024-02-23T02:49:00;4.07;;;1.40;;
85831;SDS011;76278;51.296;16.924;2024-02-23T02:51:25;8.40;;;3.10;;
85831;SDS011;76278;51.296;16.924;2024-02-23T02:53:51;6.43;;;3.17;;
85831;SDS011;76278;51.296;16.924;2024-02-23T02:56:16;5.05;;;2.35;;
85831;SDS011;76278;51.296;16.924;2024-02-23T02:58:42;4.32;;;1.80;;
85831;SDS011;76278;51.296;16.924;2024-02-23T03:01:07;5.28;;;1.85;;
85831;SDS011;76278;51.296;16.924;2024-02-23T03:03:33;4.38;;;1.48;;
85831;SDS011;76278;51.296;16.924;2024-02-23T03:05:59;5.10;;;2.10;;
85831;SDS011;76278;51.296;16.924;2024-02-23T03:08:25;4.50;;;1.80;;
85831;SDS011;76278;51.296;16.924;2024-02-23T03:10:51;5.32;;;1.80;;
85831;SDS011;76278;51.296;16.924;2024-02-23T03:13:16;4.78;;;1.88;;
85831;SDS011;76278;51.296;16.924;2024-02-23T03:15:42;5.18;;;2.00;;
85831;SDS011;76278;51.296;16.924;2024-02-23T03:18:07;4.75;;;1.90;;
85831;SDS011;76278;51.296;16.924;2024-02-23T03:20:34;4.03;;;1.40;;
85831;SDS011;76278;51.296;16.924;2024-02-23T03:23:00;4.50;;;1.75;;
85831;SDS011;76278;51.296;16.924;2024-02-23T03:25:28;5.63;;;2.72;;
85831;SDS011;76278;51.296;16.924;2024-02-23T03:27:54;6.60;;;2.60;;
85831;SDS011;76278;51.296;16.924;2024-02-23T03:30:19;6.55;;;2.00;;
85831;SDS011;76278;51.296;16.924;2024-02-23T03:32:45;5.50;;;2.25;;
85831;SDS011;76278;51.296;16.924;2024-02-23T03:35:12;4.95;;;2.10;;
85831;SDS011;76278;51.296;16.924;2024-02-23T03:37:37;4.85;;;2.08;;
85831;SDS011;76278;51.296;16.924;2024-02-23T03:40:04;5.18;;;1.83;;
85831;SDS011;76278;51.296;16.924;2024-02-23T03:42:30;5.55;;;2.13;;
85831;SDS011;76278;51.296;16.924;2024-02-23T03:44:56;5.88;;;2.33;;
85831;SDS011;76278;51.296;16.924;2024-02-23T03:47:21;5.63;;;2.63;;
85831;SDS011;76278;51.296;16.924;2024-02-23T03:49:46;5.60;;;2.65;;
85831;SDS011;76278;51.296;16.924;2024-02-23T03:52:12;6.15;;;2.67;;
85831;SDS011;76278;51.296;16.924;2024-02-23T03:54:37;6.50;;;2.53;;
85831;SDS011;76278;51.296;16.924;2024-02-23T03:57:03;6.30;;;2.72;;
85831;SDS011;76278;51.296;16.924;2024-02-23T03:59:28;7.70;;;4.40;;
85831;SDS011;76278;51.296;16.924;2024-02-23T04:01:54;7.13;;;3.10;;
85831;SDS011;76278;51.296;16.924;2024-02-23T04:04:19;5.80;;;2.80;;
85831;SDS011;76278;51.296;16.924;2024-02-23T04:06:45;5.70;;;2.60;;
85831;SDS011;76278;51.296;16.924;2024-02-23T04:09:11;6.68;;;3.28;;
85831;SDS011;76278;51.296;16.924;2024-02-23T04:11:36;7.13;;;3.20;;
85831;SDS011;76278;51.296;16.924;2024-02-23T04:14:01;6.75;;;3.35;;
85831;SDS011;76278;51.296;16.924;2024-02-23T04:16:27;6.22;;;2.72;;
85831;SDS011;76278;51.296;16.924;2024-02-23T04:18:53;6.55;;;3.38;;
85831;SDS011;76278;51.296;16.924;2024-02-23T04:21:18;6.32;;;3.10;;
85831;SDS011;76278;51.296;16.924;2024-02-23T04:23:44;6.55;;;3.10;;
85831;SDS011;76278;51.296;16.924;2024-02-23T04:26:09;6.38;;;3.00;;
85831;SDS011;76278;51.296;16.924;2024-02-23T04:28:37;5.97;;;3.22;;
85831;SDS011;76278;51.296;16.924;2024-02-23T04:31:04;6.80;;;2.95;;
85831;SDS011;76278;51.296;16.924;2024-02-23T04:33:29;7.80;;;3.38;;
85831;SDS011;76278;51.296;16.924;2024-02-23T04:35:55;6.18;;;2.90;;
85831;SDS011;76278;51.296;16.924;2024-02-23T04:38:20;6.88;;;3.35;;
85831;SDS011;76278;51.296;16.924;2024-02-23T04:40:46;7.35;;;3.63;;
85831;SDS011;76278;51.296;16.924;2024-02-23T04:43:11;7.32;;;3.55;;
85831;SDS011;76278;51.296;16.924;2024-02-23T04:45:36;8.23;;;3.22;;
85831;SDS011;76278;51.296;16.924;2024-02-23T04:48:02;8.50;;;3.88;;
85831;SDS011;76278;51.296;16.924;2024-02-23T04:50:28;6.72;;;3.22;;
85831;SDS011;76278;51.296;16.924;2024-02-23T04:52:54;7.32;;;3.95;;
85831;SDS011;76278;51.296;16.924;2024-02-23T04:55:19;6.53;;;3.40;;
85831;SDS011;76278;51.296;16.924;2024-02-23T04:57:45;6.70;;;3.20;;
85831;SDS011;76278;51.296;16.924;2024-02-23T05:00:10;7.07;;;3.17;;
85831;SDS011;76278;51.296;16.924;2024-02-23T05:02:36;7.30;;;3.60;;
85831;SDS011;76278;51.296;16.924;2024-02-23T05:05:02;7.72;;;3.33;;
85831;SDS011;76278;51.296;16.924;2024-02-23T05:07:30;6.32;;;3.03;;
85831;SDS011;76278;51.296;16.924;2024-02-23T05:09:56;6.20;;;3.25;;
85831;SDS011;76278;51.296;16.924;2024-02-23T05:12:21;7.45;;;3.38;;
85831;SDS011;76278;51.296;16.924;2024-02-23T05:14:47;7.07;;;3.55;;
85831;SDS011;76278;51.296;16.924;2024-02-23T05:17:12;6.65;;;3.35;;
85831;SDS011;76278;51.296;16.924;2024-02-23T05:19:38;7.57;;;3.38;;
85831;SDS011;76278;51.296;16.924;2024-02-23T05:22:03;6.80;;;3.30;;
85831;SDS011;76278;51.296;16.924;2024-02-23T05:24:29;7.30;;;3.42;;
85831;SDS011;76278;51.296;16.924;2024-02-23T05:26:54;6.35;;;3.17;;
85831;SDS011;76278;51.296;16.924;2024-02-23T05:29:19;8.77;;;4.15;;
85831;SDS011;76278;51.296;16.924;2024-02-23T05:31:53;12.98;;;5.53;;
85831;SDS011;76278;51.296;16.924;2024-02-23T05:34:19;14.75;;;6.35;;
85831;SDS011;76278;51.296;16.924;2024-02-23T05:36:44;15.18;;;5.57;;
85831;SDS011;76278;51.296;16.924;2024-02-23T05:39:15;13.25;;;5.47;;
85831;SDS011;76278;51.296;16.924;2024-02-23T05:41:41;12.82;;;5.00;;
85831;SDS011;76278;51.296;16.924;2024-02-23T05:44:07;12.70;;;5.25;;
85831;SDS011;76278;51.296;16.924;2024-02-23T05:46:33;14.35;;;5.55;;
85831;SDS011;76278;51.296;16.924;2024-02-23T05:48:59;17.42;;;6.60;;
85831;SDS011;76278;51.296;16.924;2024-02-23T05:51:25;16.20;;;6.75;;
85831;SDS011;76278;51.296;16.924;2024-02-23T05:53:50;12.35;;;5.95;;
85831;SDS011;76278;51.296;16.924;2024-02-23T05:56:16;13.50;;;6.65;;
85831;SDS011;76278;51.296;16.924;2024-02-23T05:58:41;10.35;;;4.97;;
85831;SDS011;76278;51.296;16.924;2024-02-23T06:01:06;8.55;;;4.30;;
85831;SDS011;76278;51.296;16.924;2024-02-23T06:03:32;12.43;;;5.93;;
85831;SDS011;76278;51.296;16.924;2024-02-23T06:05:58;11.48;;;5.90;;
85831;SDS011;76278;51.296;16.924;2024-02-23T06:08:23;11.60;;;5.38;;
85831;SDS011;76278;51.296;16.924;2024-02-23T06:10:48;12.98;;;6.38;;
85831;SDS011;76278;51.296;16.924;2024-02-23T06:13:14;12.50;;;5.65;;
85831;SDS011;76278;51.296;16.924;2024-02-23T06:15:39;12.20;;;5.53;;
85831;SDS011;76278;51.296;16.924;2024-02-23T06:18:05;11.15;;;5.90;;
85831;SDS011;76278;51.296;16.924;2024-02-23T06:20:31;11.90;;;6.25;;
85831;SDS011;76278;51.296;16.924;2024-02-23T06:22:57;12.20;;;6.32;;
85831;SDS011;76278;51.296;16.924;2024-02-23T06:25:22;12.20;;;5.68;;
85831;SDS011;76278;51.296;16.924;2024-02-23T06:27:47;10.68;;;4.93;;
85831;SDS011;76278;51.296;16.924;2024-02-23T06:30:13;11.70;;;4.90;;
85831;SDS011;76278;51.296;16.924;2024-02-23T06:32:38;10.65;;;5.15;;
85831;SDS011;76278;51.296;16.924;2024-02-23T06:35:04;11.85;;;5.90;;
85831;SDS011;76278;51.296;16.924;2024-02-23T06:37:31;11.98;;;5.47;;
85831;SDS011;76278;51.296;16.924;2024-02-23T06:39:57;13.45;;;5.90;;
85831;SDS011;76278;51.296;16.924;2024-02-23T06:42:22;13.18;;;5.85;;
85831;SDS011;76278;51.296;16.924;2024-02-23T06:44:48;15.38;;;6.88;;
85831;SDS011;76278;51.296;16.924;2024-02-23T06:47:14;16.05;;;6.43;;
85831;SDS011;76278;51.296;16.924;2024-02-23T06:49:43;14.25;;;6.05;;
85831;SDS011;76278;51.296;16.924;2024-02-23T06:52:09;12.32;;;5.45;;
85831;SDS011;76278;51.296;16.924;2024-02-23T06:54:34;13.98;;;5.28;;
85831;SDS011;76278;51.296;16.924;2024-02-23T06:57:00;10.73;;;4.50;;
85831;SDS011;76278;51.296;16.924;2024-02-23T06:59:25;12.00;;;5.00;;
85831;SDS011;76278;51.296;16.924;2024-02-23T07:01:51;11.75;;;5.03;;
85831;SDS011;76278;51.296;16.924;2024-02-23T07:04:17;10.93;;;4.32;;
85831;SDS011;76278;51.296;16.924;2024-02-23T07:06:42;9.20;;;4.05;;
85831;SDS011;76278;51.296;16.924;2024-02-23T07:09:08;8.38;;;4.40;;
85831;SDS011;76278;51.296;16.924;2024-02-23T07:11:34;9.23;;;4.25;;
85831;SDS011;76278;51.296;16.924;2024-02-23T07:13:59;8.68;;;3.90;;
85831;SDS011;76278;51.296;16.924;2024-02-23T07:16:25;7.38;;;3.55;;
85831;SDS011;76278;51.296;16.924;2024-02-23T07:18:50;9.35;;;4.13;;
85831;SDS011;76278;51.296;16.924;2024-02-23T07:21:18;9.15;;;4.13;;
85831;SDS011;76278;51.296;16.924;2024-02-23T07:23:44;11.45;;;5.07;;
85831;SDS011;76278;51.296;16.924;2024-02-23T07:26:09;9.55;;;4.32;;
85831;SDS011;76278;51.296;16.924;2024-02-23T07:28:36;8.40;;;3.92;;
85831;SDS011;76278;51.296;16.924;2024-02-23T07:31:01;8.23;;;4.20;;
85831;SDS011;76278;51.296;16.924;2024-02-23T07:33:27;9.32;;;4.32;;
85831;SDS011;76278;51.296;16.924;2024-02-23T07:35:52;8.93;;;4.40;;
85831;SDS011;76278;51.296;16.924;2024-02-23T07:38:17;9.02;;;4.45;;
85831;SDS011;76278;51.296;16.924;2024-02-23T07:40:43;10.52;;;4.55;;
85831;SDS011;76278;51.296;16.924;2024-02-23T07:43:09;8.52;;;4.18;;
85831;SDS011;76278;51.296;16.924;2024-02-23T07:45:37;9.38;;;3.90;;
85831;SDS011;76278;51.296;16.924;2024-02-23T07:48:03;9.30;;;4.15;;
85831;SDS011;76278;51.296;16.924;2024-02-23T07:50:29;9.63;;;4.30;;
85831;SDS011;76278;51.296;16.924;2024-02-23T07:52:54;10.18;;;3.83;;
85831;SDS011;76278;51.296;16.924;2024-02-23T07:55:19;9.68;;;3.60;;
85831;SDS011;76278;51.296;16.924;2024-02-23T07:57:45;6.53;;;2.47;;
85831;SDS011;76278;51.296;16.924;2024-02-23T08:00:10;6.10;;;2.35;;
85831;SDS011;76278;51.296;16.924;2024-02-23T08:02:36;6.03;;;2.30;;
85831;SDS011;76278;51.296;16.924;2024-02-23T08:05:02;5.70;;;2.30;;
85831;SDS011;76278;51.296;16.924;2024-02-23T08:07:28;6.85;;;2.30;;
85831;SDS011;76278;51.296;16.924;2024-02-23T08:09:55;6.15;;;2.10;;
85831;SDS011;76278;51.296;16.924;2024-02-23T08:12:22;7.03;;;2.20;;
85831;SDS011;76278;51.296;16.924;2024-02-23T08:14:47;5.75;;;2.30;;
85831;SDS011;76278;51.296;16.924;2024-02-23T08:17:14;6.50;;;2.38;;
85831;SDS011;76278;51.296;16.924;2024-02-23T08:19:40;5.55;;;1.95;;
85831;SDS011;76278;51.296;16.924;2024-02-23T08:22:05;5.43;;;1.70;;
85831;SDS011;76278;51.296;16.924;2024-02-23T08:24:30;6.68;;;1.70;;
85831;SDS011;76278;51.296;16.924;2024-02-23T08:26:56;5.95;;;1.58;;
85831;SDS011;76278;51.296;16.924;2024-02-23T08:29:21;5.65;;;1.10;;
85831;SDS011;76278;51.296;16.924;2024-02-23T08:31:47;4.25;;;1.02;;
85831;SDS011;76278;51.296;16.924;2024-02-23T08:34:13;2.25;;;0.68;;
85831;SDS011;76278;51.296;16.924;2024-02-23T08:36:38;2.80;;;0.60;;
85831;SDS011;76278;51.296;16.924;2024-02-23T08:39:04;3.47;;;0.70;;
85831;SDS011;76278;51.296;16.924;2024-02-23T08:41:29;2.40;;;0.50;;
85831;SDS011;76278;51.296;16.924;2024-02-23T08:43:54;3.53;;;0.63;;
85831;SDS011;76278;51.296;16.924;2024-02-23T08:46:20;4.07;;;0.98;;
85831;SDS011;76278;51.296;16.924;2024-02-23T08:48:46;4.68;;;0.93;;
85831;SDS011;76278;51.296;16.924;2024-02-23T08:51:13;4.38;;;0.70;;
85831;SDS011;76278;51.296;16.924;2024-02-23T08:53:38;3.65;;;0.85;;
85831;SDS011;76278;51.296;16.924;2024-02-23T08:56:04;4.32;;;0.90;;
85831;SDS011;76278;51.296;16.924;2024-02-23T08:58:31;2.78;;;0.68;;
85831;SDS011;76278;51.296;16.924;2024-02-23T09:00:57;2.47;;;0.70;;
85831;SDS011;76278;51.296;16.924;2024-02-23T09:03:22;3.33;;;0.80;;
85831;SDS011;76278;51.296;16.924;2024-02-23T09:05:49;2.78;;;0.80;;
85831;SDS011;76278;51.296;16.924;2024-02-23T09:10:40;5.37;;;1.07;;
85831;SDS011;76278;51.296;16.924;2024-02-23T09:13:06;3.90;;;1.13;;
85831;SDS011;76278;51.296;16.924;2024-02-23T09:15:31;5.95;;;1.27;;
85831;SDS011;76278;51.296;16.924;2024-02-23T09:17:56;5.95;;;1.30;;
85831;SDS011;76278;51.296;16.924;2024-02-23T09:20:22;6.00;;;1.58;;
85831;SDS011;76278;51.296;16.924;2024-02-23T09:22:48;5.53;;;1.40;;
85831;SDS011;76278;51.296;16.924;2024-02-23T09:25:14;4.93;;;1.25;;
85831;SDS011;76278;51.296;16.924;2024-02-23T09:27:39;4.20;;;1.15;;
85831;SDS011;76278;51.296;16.924;2024-02-23T09:30:09;6.32;;;1.48;;
85831;SDS011;76278;51.296;16.924;2024-02-23T09:32:36;9.23;;;3.60;;
85831;SDS011;76278;51.296;16.924;2024-02-23T09:35:02;16.02;;;8.00;;
85831;SDS011;76278;51.296;16.924;2024-02-23T09:37:28;6.50;;;2.58;;
85831;SDS011;76278;51.296;16.924;2024-02-23T09:39:54;8.98;;;3.58;;
85831;SDS011;76278;51.296;16.924;2024-02-23T09:42:19;10.63;;;4.50;;
85831;SDS011;76278;51.296;16.924;2024-02-23T09:44:48;8.38;;;2.58;;
85831;SDS011;76278;51.296;16.924;2024-02-23T09:47:19;8.05;;;2.42;;
85831;SDS011;76278;51.296;16.924;2024-02-23T09:49:44;11.57;;;2.90;;
85831;SDS011;76278;51.296;16.924;2024-02-23T09:52:13;8.48;;;3.13;;
85831;SDS011;76278;51.296;16.924;2024-02-23T09:54:38;9.63;;;3.75;;
85831;SDS011;76278;51.296;16.924;2024-02-23T09:57:06;9.10;;;3.33;;
85831;SDS011;76278;51.296;16.924;2024-02-23T09:59:33;10.60;;;3.60;;
85831;SDS011;76278;51.296;16.924;2024-02-23T10:01:59;11.85;;;4.85;;
85831;SDS011;76278;51.296;16.924;2024-02-23T10:04:25;11.82;;;4.28;;
85831;SDS011;76278;51.296;16.924;2024-02-23T10:06:52;9.43;;;3.15;;
85831;SDS011;76278;51.296;16.924;2024-02-23T10:09:17;11.80;;;4.25;;
85831;SDS011;76278;51.296;16.924;2024-02-23T10:11:43;7.07;;;2.38;;
85831;SDS011;76278;51.296;16.924;2024-02-23T10:14:08;6.40;;;2.13;;
85831;SDS011;76278;51.296;16.924;2024-02-23T10:16:34;7.13;;;2.00;;
85831;SDS011;76278;51.296;16.924;2024-02-23T10:18:59;6.07;;;1.60;;
85831;SDS011;76278;51.296;16.924;2024-02-23T10:21:25;3.33;;;0.90;;
85831;SDS011;76278;51.296;16.924;2024-02-23T10:23:50;6.03;;;2.13;;
85831;SDS011;76278;51.296;16.924;2024-02-23T10:26:16;4.55;;;1.75;;
85831;SDS011;76278;51.296;16.924;2024-02-23T10:28:44;4.90;;;1.67;;
85831;SDS011;76278;51.296;16.924;2024-02-23T10:31:10;4.55;;;1.30;;
85831;SDS011;76278;51.296;16.924;2024-02-23T10:33:36;5.18;;;1.90;;
85831;SDS011;76278;51.296;16.924;2024-02-23T10:36:03;3.92;;;1.08;;
85831;SDS011;76278;51.296;16.924;2024-02-23T10:38:31;7.03;;;2.15;;
85831;SDS011;76278;51.296;16.924;2024-02-23T10:40:57;7.07;;;2.70;;
85831;SDS011;76278;51.296;16.924;2024-02-23T10:43:25;6.28;;;2.90;;
85831;SDS011;76278;51.296;16.924;2024-02-23T10:45:59;7.28;;;3.35;;
85831;SDS011;76278;51.296;16.924;2024-02-23T10:48:27;13.05;;;8.43;;
85831;SDS011;76278;51.296;16.924;2024-02-23T10:50:53;9.05;;;4.60;;
85831;SDS011;76278;51.296;16.924;2024-02-23T10:53:19;7.63;;;3.63;;
85831;SDS011;76278;51.296;16.924;2024-02-23T10:55:44;7.75;;;2.05;;
85831;SDS011;76278;51.296;16.924;2024-02-23T10:58:10;5.55;;;2.10;;
85831;SDS011;76278;51.296;16.924;2024-02-23T11:00:38;7.88;;;3.63;;
85831;SDS011;76278;51.296;16.924;2024-02-23T11:03:03;5.38;;;2.03;;
85831;SDS011;76278;51.296;16.924;2024-02-23T11:05:30;4.65;;;1.30;;
85831;SDS011;76278;51.296;16.924;2024-02-23T11:07:56;3.83;;;1.20;;
85831;SDS011;76278;51.296;16.924;2024-02-23T11:10:22;4.93;;;1.75;;
85831;SDS011;76278;51.296;16.924;2024-02-23T11:12:59;6.72;;;2.65;;
85831;SDS011;76278;51.296;16.924;2024-02-23T11:15:32;4.82;;;1.90;;
85831;SDS011;76278;51.296;16.924;2024-02-23T11:18:04;4.50;;;1.50;;
85831;SDS011;76278;51.296;16.924;2024-02-23T11:20:52;5.07;;;1.23;;
85831;SDS011;76278;51.296;16.924;2024-02-23T11:25:58;4.07;;;1.00;;
85831;SDS011;76278;51.296;16.924;2024-02-23T11:28:24;4.97;;;1.10;;
85831;SDS011;76278;51.296;16.924;2024-02-23T11:30:50;3.75;;;1.02;;
85831;SDS011;76278;51.296;16.924;2024-02-23T11:33:25;4.30;;;0.90;;
85831;SDS011;76278;51.296;16.924;2024-02-23T11:35:53;3.78;;;1.00;;
85831;SDS011;76278;51.296;16.924;2024-02-23T11:38:20;3.42;;;0.98;;
85831;SDS011;76278;51.296;16.924;2024-02-23T11:40:47;2.88;;;1.00;;
85831;SDS011;76278;51.296;16.924;2024-02-23T11:43:13;4.13;;;1.00;;
85831;SDS011;76278;51.296;16.924;2024-02-23T11:45:39;2.55;;;0.93;;
85831;SDS011;76278;51.296;16.924;2024-02-23T11:48:05;4.15;;;1.20;;
85831;SDS011;76278;51.296;16.924;2024-02-23T11:50:32;3.00;;;0.77;;
85831;SDS011;76278;51.296;16.924;2024-02-23T11:52:57;4.35;;;1.35;;
85831;SDS011;76278;51.296;16.924;2024-02-23T11:55:23;4.63;;;1.63;;
85831;SDS011;76278;51.296;16.924;2024-02-23T11:57:48;5.03;;;1.30;;
85831;SDS011;76278;51.296;16.924;2024-02-23T12:00:14;4.50;;;1.40;;
85831;SDS011;76278;51.296;16.924;2024-02-23T12:02:40;5.28;;;1.52;;
85831;SDS011;76278;51.296;16.924;2024-02-23T12:05:06;10.65;;;5.38;;
85831;SDS011;76278;51.296;16.924;2024-02-23T12:07:32;8.55;;;4.03;;
85831;SDS011;76278;51.296;16.924;2024-02-23T12:09:57;7.78;;;4.22;;
85831;SDS011;76278;51.296;16.924;2024-02-23T12:12:26;10.35;;;5.75;;
85831;SDS011;76278;51.296;16.924;2024-02-23T12:14:51;9.02;;;4.72;;
85831;SDS011;76278;51.296;16.924;2024-02-23T12:17:17;10.68;;;5.85;;
85831;SDS011;76278;51.296;16.924;2024-02-23T12:19:43;10.73;;;6.53;;
85831;SDS011;76278;51.296;16.924;2024-02-23T12:22:09;14.55;;;7.43;;
85831;SDS011;76278;51.296;16.924;2024-02-23T12:24:36;57.72;;;21.95;;
85831;SDS011;76278;51.296;16.924;2024-02-23T12:27:01;59.88;;;28.75;;
85831;SDS011;76278;51.296;16.924;2024-02-23T12:29:27;21.05;;;11.02;;
85831;SDS011;76278;51.296;16.924;2024-02-23T12:32:13;8.68;;;3.50;;
85831;SDS011;76278;51.296;16.924;2024-02-23T12:34:38;4.25;;;1.38;;
85831;SDS011;76278;51.296;16.924;2024-02-23T12:37:04;4.63;;;1.52;;
85831;SDS011;76278;51.296;16.924;2024-02-23T12:39:30;5.78;;;1.83;;
85831;SDS011;76278;51.296;16.924;2024-02-23T12:41:55;6.38;;;1.90;;
85831;SDS011;76278;51.296;16.924;2024-02-23T12:44:22;9.30;;;3.03;;
85831;SDS011;76278;51.296;16.924;2024-02-23T12:46:47;9.00;;;2.65;;
85831;SDS011;76278;51.296;16.924;2024-02-23T12:49:12;7.25;;;2.15;;
85831;SDS011;76278;51.296;16.924;2024-02-23T12:51:38;6.53;;;2.00;;
85831;SDS011;76278;51.296;16.924;2024-02-23T12:54:03;5.88;;;1.27;;
85831;SDS011;76278;51.296;16.924;2024-02-23T12:56:29;4.53;;;1.13;;
85831;SDS011;76278;51.296;16.924;2024-02-23T12:58:55;7.80;;;2.45;;
85831;SDS011;76278;51.296;16.924;2024-02-23T13:01:21;16.60;;;6.07;;
85831;SDS011;76278;51.296;16.924;2024-02-23T13:03:47;17.77;;;6.70;;
85831;SDS011;76278;51.296;16.924;2024-02-23T13:06:13;11.60;;;4.38;;
85831;SDS011;76278;51.296;16.924;2024-02-23T13:08:40;6.53;;;1.90;;
85831;SDS011;76278;51.296;16.924;2024-02-23T13:13:32;5.13;;;1.07;;
85831;SDS011;76278;51.296;16.924;2024-02-23T13:15:58;8.90;;;4.35;;
85831;SDS011;76278;51.296;16.924;2024-02-23T13:18:23;6.53;;;2.58;;
85831;SDS011;76278;51.296;16.924;2024-02-23T13:20:49;9.18;;;2.97;;
85831;SDS011;76278;51.296;16.924;2024-02-23T13:23:15;12.05;;;5.80;;
85831;SDS011;76278;51.296;16.924;2024-02-23T13:25:41;18.45;;;8.73;;
85831;SDS011;76278;51.296;16.924;2024-02-23T13:28:07;19.00;;;9.13;;
85831;SDS011;76278;51.296;16.924;2024-02-23T13:30:33;27.40;;;18.77;;
85831;SDS011;76278;51.296;16.924;2024-02-23T13:32:58;22.70;;;12.07;;
85831;SDS011;76278;51.296;16.924;2024-02-23T13:35:25;18.70;;;8.90;;
85831;SDS011;76278;51.296;16.924;2024-02-23T13:37:50;20.38;;;9.82;;
85831;SDS011;76278;51.296;16.924;2024-02-23T13:40:16;24.92;;;14.30;;
85831;SDS011;76278;51.296;16.924;2024-02-23T13:42:41;25.88;;;16.63;;
85831;SDS011;76278;51.296;16.924;2024-02-23T13:45:07;18.20;;;11.57;;
85831;SDS011;76278;51.296;16.924;2024-02-23T13:47:34;11.63;;;6.40;;
85831;SDS011;76278;51.296;16.924;2024-02-23T13:50:00;9.30;;;4.25;;
85831;SDS011;76278;51.296;16.924;2024-02-23T13:52:25;8.75;;;3.30;;
85831;SDS011;76278;51.296;16.924;2024-02-23T13:54:51;9.13;;;3.70;;
85831;SDS011;76278;51.296;16.924;2024-02-23T13:57:16;10.60;;;4.60;;
85831;SDS011;76278;51.296;16.924;2024-02-23T13:59:42;8.80;;;3.50;;
85831;SDS011;76278;51.296;16.924;2024-02-23T14:02:07;9.23;;;3.80;;
85831;SDS011;76278;51.296;16.924;2024-02-23T14:04:33;9.25;;;4.13;;
85831;SDS011;76278;51.296;16.924;2024-02-23T14:06:58;6.43;;;1.90;;
85831;SDS011;76278;51.296;16.924;2024-02-23T14:09:23;6.32;;;2.25;;
85831;SDS011;76278;51.296;16.924;2024-02-23T14:11:49;5.80;;;1.67;;
85831;SDS011;76278;51.296;16.924;2024-02-23T14:14:15;6.70;;;1.48;;
85831;SDS011;76278;51.296;16.924;2024-02-23T14:16:41;4.32;;;1.48;;
85831;SDS011;76278;51.296;16.924;2024-02-23T14:19:06;4.95;;;1.48;;
85831;SDS011;76278;51.296;16.924;2024-02-23T14:21:32;5.32;;;1.30;;
85831;SDS011;76278;51.296;16.924;2024-02-23T14:23:57;5.75;;;1.58;;
85831;SDS011;76278;51.296;16.924;2024-02-23T14:26:23;9.10;;;2.97;;
85831;SDS011;76278;51.296;16.924;2024-02-23T14:28:48;6.07;;;2.10;;
85831;SDS011;76278;51.296;16.924;2024-02-23T14:31:14;5.68;;;1.63;;